createdAt,value
2022-11-21T11:57:52.483Z,40.96
2022-11-21T12:03:04.234Z,40.34
2022-11-21T12:13:41.993Z,40.42
2022-11-21T12:19:06.693Z,40.42
2022-11-21T12:24:22.393Z,40.20
2022-11-21T12:29:47.030Z,40.58
2022-11-21T12:35:08.341Z,40.49
2022-11-21T12:40:31.257Z,40.66
2022-11-21T12:45:34.490Z,40.58
2022-11-21T12:51:28.696Z,40.69
2022-11-21T12:56:39.970Z,40.80
2022-11-21T13:02:19.258Z,40.79
2022-11-21T13:07:40.850Z,40.76
2022-11-21T13:15:26.360Z,41.03
2022-11-21T13:20:38.018Z,40.92
2022-11-21T13:25:40.956Z,40.85
2022-11-21T13:30:54.162Z,40.74
2022-11-21T13:35:56.540Z,40.84
2022-11-21T13:41:21.635Z,40.98
2022-11-21T13:47:02.631Z,40.85
2022-11-21T13:52:33.750Z,41.15
2022-11-21T13:57:50.849Z,41.26
2022-11-21T14:03:13.331Z,41.34
2022-11-21T14:08:18.408Z,41.36
2022-11-21T14:13:28.632Z,41.46
2022-11-21T14:23:19.390Z,41.66
2022-11-21T14:28:29.668Z,41.92
2022-11-21T14:33:33.299Z,42.06
2022-11-21T14:39:07.655Z,42.25
2022-11-21T14:44:11.214Z,42.46
2022-11-21T14:49:21.084Z,42.56
2022-11-21T14:54:27.203Z,42.71
2022-11-21T14:59:34.881Z,42.92
2022-11-21T15:04:36.728Z,43.46
2022-11-21T15:15:06.641Z,43.75
2022-11-21T15:20:14.206Z,43.90
2022-11-21T15:25:20.433Z,43.96
2022-11-21T15:30:27.121Z,44.16
2022-11-21T15:35:37.762Z,44.20
2022-11-21T15:40:42.992Z,43.96
2022-11-21T15:45:47.452Z,44.15
2022-11-21T15:50:49.273Z,43.96
2022-11-21T15:55:51.815Z,43.88
2022-11-21T16:00:53.645Z,44.06
2022-11-21T16:05:55.466Z,44.17
2022-11-21T16:10:57.955Z,44.21
2022-11-21T16:16:00.964Z,44.06
2022-11-21T16:21:10.992Z,44.09
2022-11-21T16:26:12.849Z,44.11
2022-11-21T16:31:23.199Z,44.17
2022-11-21T16:36:27.622Z,44.25
2022-11-21T16:41:29.503Z,44.23
2022-11-21T16:46:31.251Z,44.31
2022-11-21T16:51:33.027Z,44.50
2022-11-21T16:56:34.866Z,44.61
2022-11-21T17:01:36.732Z,44.71
2022-11-21T17:06:38.582Z,44.91
2022-11-21T17:11:40.332Z,44.89
2022-11-21T17:16:42.160Z,44.88
2022-11-21T17:21:43.977Z,44.98
2022-11-21T17:26:45.783Z,45.05
2022-11-21T17:31:51.168Z,45.00
2022-11-21T17:36:52.911Z,45.03
2022-11-21T17:41:54.817Z,45.24
2022-11-21T17:46:59.232Z,45.15
2022-11-21T17:52:01.023Z,45.21
2022-11-21T17:57:03.046Z,45.36
2022-11-21T18:02:05.061Z,45.57
2022-11-21T18:07:07.062Z,45.54
2022-11-21T18:12:08.932Z,45.48
2022-11-21T18:17:10.858Z,45.45
2022-11-21T18:22:12.638Z,45.48
2022-11-21T18:27:14.371Z,45.58
2022-11-21T18:32:16.149Z,45.60
2022-11-21T18:37:17.898Z,45.51
2022-11-21T18:42:19.669Z,45.46
2022-11-21T18:47:21.405Z,45.41
2022-11-21T18:52:23.324Z,45.48
2022-11-21T18:57:25.094Z,45.43
2022-11-21T19:02:26.888Z,45.43
2022-11-21T19:07:28.905Z,45.50
2022-11-21T19:12:36.274Z,45.10
2022-11-21T19:17:41.018Z,45.01
2022-11-21T19:22:42.793Z,45.44
2022-11-21T19:27:44.576Z,45.20
2022-11-21T19:32:46.352Z,45.27
2022-11-21T19:37:48.122Z,45.11
2022-11-21T19:42:49.893Z,44.94
2022-11-21T19:47:56.953Z,44.54
2022-11-21T19:52:58.702Z,44.59
2022-11-21T19:58:00.509Z,44.74
2022-11-21T20:03:02.283Z,44.84
2022-11-21T20:08:09.934Z,44.66
2022-11-21T20:13:18.332Z,44.69
2022-11-21T20:18:20.160Z,44.72
2022-11-21T20:23:21.921Z,45.03
2022-11-21T20:28:24.975Z,45.07
2022-11-21T20:33:26.710Z,44.78
2022-11-21T20:38:28.450Z,44.69
2022-11-21T20:44:02.774Z,44.41
2022-11-21T20:48:51.839Z,44.62
2022-11-21T20:53:57.223Z,44.38
2022-11-21T20:59:05.408Z,44.23
2022-11-21T21:04:09.304Z,44.25
2022-11-21T21:09:11.098Z,44.20
2022-11-21T21:14:12.742Z,44.15
2022-11-21T21:19:14.475Z,44.16
2022-11-21T21:24:17.281Z,44.36
2022-11-21T21:29:21.163Z,44.57
2022-11-21T21:34:23.158Z,44.60
2022-11-21T21:39:25.528Z,44.31
2022-11-21T21:44:33.061Z,44.37
2022-11-21T21:49:35.484Z,44.54
2022-11-21T21:54:37.204Z,44.72
2022-11-21T21:59:38.847Z,44.57
2022-11-21T22:04:40.579Z,44.70
2022-11-21T22:09:42.469Z,44.67
2022-11-21T22:14:49.420Z,44.37
2022-11-21T22:19:51.180Z,44.40
2022-11-21T22:24:53.009Z,45.00
2022-11-21T22:29:55.191Z,45.24
2022-11-21T22:35:00.932Z,45.01
2022-11-21T22:40:02.845Z,45.41
2022-11-21T22:45:05.184Z,45.76
2022-11-21T22:50:07.964Z,45.85
2022-11-21T22:55:09.755Z,46.18
2022-11-21T23:00:12.198Z,46.05
2022-11-21T23:05:14.009Z,45.65
2022-11-21T23:10:16.058Z,45.64
2022-11-21T23:15:17.842Z,45.57
2022-11-21T23:20:19.618Z,45.80
2022-11-21T23:25:21.400Z,45.64
2022-11-21T23:30:23.154Z,45.56
2022-11-21T23:35:24.959Z,45.52
2022-11-21T23:40:26.692Z,45.53
2022-11-21T23:45:29.086Z,45.43
2022-11-21T23:50:30.883Z,45.41
2022-11-21T23:55:32.697Z,45.18
